Friday, November 24, 2017, 12:38 AM EST
Back to Local

KUCP, New Castle, New Castle Municipal Airport

Location: Edinburg, PA, United States Lat: 41.025
Local Time: 12:38 AM EST ( 5:38 GMT) Lon: -80.413
Time Zone: US/Eastern Elev: 1072 ft

Show me the last for .
Show Decoded

2017-11-23 23:56 METAR KUCP 240456Z AUTO 00000KT 10SM CLR M01/M05 A3004 RMK AO2 SLP198 T10111050
                 400441056 =
2017-11-23 22:56 METAR KUCP 240356Z AUTO 00000KT 10SM SCT060 00/M05 A3003 RMK AO2 SLP197
                 T00001050 =
2017-11-23 21:56 METAR KUCP 240256Z AUTO 00000KT 10SM BKN060 01/M05 A3003 RMK AO2 SLP194
                 T00111050 51006 =
2017-11-23 20:56 METAR KUCP 240156Z AUTO 00000KT 10SM SCT043 BKN060 OVC070 02/M06 A3002 RMK AO2
                 SLP193 T00171056 =
2017-11-23 19:56 METAR KUCP 240056Z AUTO 00000KT 10SM BKN043 OVC060 02/M05 A3003 RMK AO2 SLP195
                 T00221050 =
2017-11-23 18:56 METAR KUCP 232356Z AUTO 00000KT 10SM OVC050 02/M06 A3001 RMK AO2 SLP189
                 T00171056 10044 20006 56004 =
2017-11-23 17:56 METAR KUCP 232256Z AUTO 00000KT 10SM SCT060 BKN100 02/M06 A3001 RMK AO2 SLP190
                 T00221056 =
2017-11-23 16:56 METAR KUCP 232156Z AUTO 00000KT 10SM OVC065 02/M06 A3001 RMK AO2 SLP188
                 T00221056 =
2017-11-23 15:56 METAR KUCP 232056Z AUTO VRB03KT 10SM FEW075 OVC100 03/M06 A3002 RMK AO2 SLP193
                 T00331056 56020 =
2017-11-23 14:56 METAR KUCP 231956Z AUTO VRB06KT 10SM CLR 04/M06 A3002 RMK AO2 SLP193 T00391056 =
2017-11-23 13:56 METAR KUCP 231856Z AUTO 24008KT 10SM BKN120 03/M06 A3005 RMK AO2 SLP203
                 T00281056 =
2017-11-23 12:56 METAR KUCP 231756Z AUTO 20005KT 10SM OVC110 02/M06 A3008 RMK AO2 SLP214
                 T00171056 10017 21044 58023 =
2017-11-23 11:56 METAR KUCP 231656Z AUTO VRB04KT 10SM FEW090 SCT110 01/M06 A3010 RMK AO2 SLP220
                 T00061061 =
2017-11-23 10:56 METAR KUCP 231556Z AUTO 24007KT 10SM FEW027 BKN090 01/M06 A3014 RMK AO2 SLP234
                 T00061061 =
2017-11-23 09:56 METAR KUCP 231456Z AUTO VRB04KT 10SM BKN090 M01/M05 A3015 RMK AO2 SLP239
                 T10061050 55001 =
2017-11-23 08:56 METAR KUCP 231356Z AUTO 00000KT 10SM CLR M02/M04 A3015 RMK AO2 SLP239 T10221044
                 =
2017-11-23 07:56 METAR KUCP 231256Z AUTO 00000KT 10SM CLR M03/M06 A3015 RMK AO2 SLP239 T10331056
                 =
2017-11-23 06:56 METAR KUCP 231156Z AUTO 00000KT 10SM CLR M04/M06 A3016 RMK AO2 SLP241 T10441056
                 11017 21056 58008 =
2017-11-23 05:56 METAR KUCP 231056Z AUTO 00000KT 10SM CLR M05/M06 A3017 RMK AO2 SLP247 T10501061
                 =
2017-11-23 04:56 METAR KUCP 230956Z AUTO 00000KT 10SM CLR M04/M06 A3017 RMK AO2 SLP245 T10441056
                 =
2017-11-23 03:56 METAR KUCP 230856Z AUTO 22003KT 10SM BKN035 M03/M06 A3018 RMK AO2 SLP249
                 T10331056 58006 =
2017-11-23 02:56 METAR KUCP 230756Z AUTO 00000KT 10SM OVC037 M03/M06 A3019 RMK AO2 SLP252
                 T10281056 =
2017-11-23 01:56 METAR KUCP 230656Z AUTO 23003KT 10SM OVC037 M02/M06 A3019 RMK AO2 SLP250
                 T10221056 =
2017-11-23 00:56 METAR KUCP 230556Z AUTO 00000KT 10SM OVC037 M02/M06 A3020 RMK AO2 SLP253
                 T10171056 11006 21017 58006 =

Support USWX by starting your Amazon purchase here.